createdAt,value
2019-06-07T00:02:18.763Z,9.22
2019-06-07T00:04:48.400Z,9.16
2019-06-07T00:07:21.433Z,9.19
2019-06-07T00:09:48.997Z,9.21
2019-06-07T00:12:21.550Z,9.20
2019-06-07T00:14:49.545Z,9.17
2019-06-07T00:17:20.252Z,9.05
2019-06-07T00:19:50.278Z,9.05
2019-06-07T00:22:32.502Z,9.03
2019-06-07T00:24:51.192Z,8.96
2019-06-07T00:27:22.546Z,8.84
2019-06-07T00:29:51.805Z,8.67
2019-06-07T00:32:22.330Z,8.67
2019-06-07T00:34:51.942Z,8.69
2019-06-07T00:37:25.325Z,8.77
2019-06-07T00:40:12.972Z,8.77
2019-06-07T00:42:24.259Z,8.78
2019-06-07T00:44:54.070Z,8.70
2019-06-07T00:47:25.546Z,8.69
2019-06-07T00:49:54.743Z,8.70
2019-06-07T00:53:11.448Z,8.68
2019-06-07T00:54:55.451Z,8.63
2019-06-07T00:57:24.864Z,8.66
2019-06-07T00:59:54.479Z,8.69
2019-06-07T01:02:28.312Z,8.64
2019-06-07T01:04:55.078Z,8.71
2019-06-07T01:07:24.633Z,8.75
2019-06-07T01:09:54.035Z,8.72
2019-06-07T01:12:24.604Z,8.60
2019-06-07T01:14:54.765Z,8.54
2019-06-07T01:17:41.441Z,8.44
2019-06-07T01:19:58.448Z,8.41
2019-06-07T01:22:29.467Z,8.43
2019-06-07T01:24:59.124Z,8.43
2019-06-07T01:27:28.837Z,8.45
2019-06-07T01:29:58.378Z,8.48
2019-06-07T01:32:31.840Z,8.54
2019-06-07T01:35:00.486Z,8.65
2019-06-07T01:37:30.440Z,8.74
2019-06-07T01:40:00.055Z,8.78
2019-06-07T01:42:31.010Z,8.86
2019-06-07T01:45:00.713Z,8.80
2019-06-07T01:47:32.094Z,8.85
2019-06-07T01:50:01.304Z,8.74
2019-06-07T01:52:30.683Z,8.65
2019-06-07T01:55:00.171Z,8.66
2019-06-07T01:57:44.204Z,8.71
2019-06-07T02:00:00.845Z,8.83
2019-06-07T02:02:31.837Z,8.88
2019-06-07T02:05:01.426Z,8.96
2019-06-07T02:07:33.246Z,9.02
2019-06-07T02:10:02.191Z,8.95
2019-06-07T02:12:42.446Z,8.99
2019-06-07T02:15:07.355Z,9.00
2019-06-07T02:17:37.302Z,9.04
2019-06-07T02:20:09.494Z,9.10
2019-06-07T02:22:38.906Z,9.09
2019-06-07T02:27:40.007Z,9.11
2019-06-07T02:30:37.169Z,9.08
2019-06-07T02:32:41.530Z,9.08
2019-06-07T02:35:11.037Z,9.08
2019-06-07T02:37:40.475Z,9.13
2019-06-07T02:40:10.644Z,9.09
2019-06-07T02:42:42.819Z,9.10
2019-06-07T02:45:11.454Z,9.12
2019-06-07T02:47:41.761Z,9.17
2019-06-07T02:50:14.059Z,9.22
2019-06-07T02:52:43.532Z,9.22
2019-06-07T02:55:13.227Z,9.12
2019-06-07T02:57:43.347Z,9.07
2019-06-07T03:00:41.246Z,9.03
2019-06-07T03:02:46.666Z,8.96
2019-06-07T03:05:16.176Z,8.91
2019-06-07T03:07:48.039Z,8.94
2019-06-07T03:10:17.565Z,8.94
2019-06-07T03:12:50.719Z,8.96
2019-06-07T03:15:32.638Z,9.03
2019-06-07T03:17:57.675Z,9.08
2019-06-07T03:20:32.848Z,9.11
2019-06-07T03:23:02.504Z,9.19
2019-06-07T03:25:37.014Z,9.28
2019-06-07T03:28:07.364Z,9.32
2019-06-07T03:30:52.047Z,9.34
2019-06-07T03:33:09.493Z,9.46
2019-06-07T03:35:40.650Z,9.53
2019-06-07T03:38:10.044Z,9.62
2019-06-07T03:40:40.245Z,9.77
2019-06-07T03:43:09.787Z,9.76
2019-06-07T03:45:41.480Z,9.70
2019-06-07T03:48:11.871Z,9.76
2019-06-07T03:50:42.238Z,9.83
2019-06-07T03:53:12.089Z,9.84
2019-06-07T03:55:41.622Z,9.85
2019-06-07T03:58:31.448Z,9.92
2019-06-07T04:00:43.438Z,10.10
2019-06-07T04:03:32.368Z,10.28
2019-06-07T04:05:44.319Z,10.46
2019-06-07T04:08:13.775Z,10.57
2019-06-07T04:10:58.721Z,10.72
2019-06-07T04:13:14.628Z,11.00
2019-06-07T04:15:44.052Z,11.18
2019-06-07T04:18:13.525Z,11.32
2019-06-07T04:20:43.002Z,11.49
2019-06-07T04:23:27.580Z,11.64
2019-06-07T04:25:43.902Z,11.75
2019-06-07T04:28:13.344Z,11.86
2019-06-07T04:30:44.451Z,11.98
2019-06-07T04:33:14.901Z,12.07
2019-06-07T04:35:45.316Z,12.16
2019-06-07T04:38:15.253Z,12.23
2019-06-07T04:40:45.021Z,12.33
2019-06-07T04:43:14.536Z,12.46
2019-06-07T04:45:50.676Z,12.51
2019-06-07T04:48:15.154Z,12.58
2019-06-07T04:50:44.575Z,12.68
2019-06-07T04:53:14.017Z,12.80
2019-06-07T04:55:43.537Z,12.94
2019-06-07T04:58:13.072Z,13.05
2019-06-07T05:00:52.406Z,13.17
2019-06-07T05:03:14.288Z,13.31
2019-06-07T05:05:44.081Z,13.39
2019-06-07T05:08:27.456Z,13.52
2019-06-07T05:10:44.759Z,13.64
2019-06-07T05:13:14.212Z,13.72
2019-06-07T05:15:43.652Z,13.78
2019-06-07T05:18:13.108Z,13.87
2019-06-07T05:20:44.476Z,14.00
2019-06-07T05:23:59.550Z,14.04
2019-06-07T05:25:45.016Z,13.98
2019-06-07T05:28:14.508Z,14.08
2019-06-07T05:31:03.891Z,14.13
2019-06-07T05:33:15.167Z,14.15
2019-06-07T05:35:44.692Z,14.24
2019-06-07T05:38:14.190Z,14.34
2019-06-07T05:40:48.682Z,14.54
2019-06-07T05:43:25.548Z,14.54
2019-06-07T05:45:55.070Z,14.64
2019-06-07T05:48:24.666Z,14.61
2019-06-07T05:50:57.735Z,14.70
2019-06-07T05:53:25.289Z,14.73
2019-06-07T05:55:56.343Z,14.86
2019-06-07T05:58:25.756Z,14.93
2019-06-07T06:00:55.203Z,15.00
2019-06-07T06:03:24.652Z,15.08
2019-06-07T06:05:55.519Z,15.17
2019-06-07T06:08:25.743Z,15.20
2019-06-07T06:10:55.268Z,15.36
2019-06-07T06:13:24.724Z,15.45
2019-06-07T06:16:01.150Z,15.54
2019-06-07T06:18:25.321Z,15.66
2019-06-07T06:21:15.654Z,15.77
2019-06-07T06:23:26.008Z,15.83
2019-06-07T06:25:57.376Z,15.88
2019-06-07T06:28:27.306Z,16.04
2019-06-07T06:30:57.029Z,16.25
2019-06-07T06:33:34.538Z,16.26
2019-06-07T06:35:59.015Z,16.27
2019-06-07T06:38:28.446Z,16.39
2019-06-07T06:41:14.322Z,16.53
2019-06-07T06:43:29.014Z,16.58
2019-06-07T06:45:58.482Z,16.59
2019-06-07T06:48:27.913Z,16.60
2019-06-07T06:50:57.442Z,16.80
2019-06-07T06:53:26.912Z,16.80
2019-06-07T06:55:56.367Z,16.75
2019-06-07T06:58:25.906Z,16.99
2019-06-07T07:01:06.010Z,16.78
2019-06-07T07:06:23.442Z,16.83
2019-06-07T07:08:29.783Z,16.88
2019-06-07T07:11:00.051Z,17.18
2019-06-07T07:13:29.524Z,17.56
2019-06-07T07:15:58.998Z,17.82
2019-06-07T07:18:28.430Z,17.92
2019-06-07T07:20:57.939Z,18.24
2019-06-07T07:23:27.504Z,18.34
2019-06-07T07:25:59.308Z,18.42
2019-06-07T07:28:28.170Z,18.56
2019-06-07T07:30:57.690Z,18.69
2019-06-07T07:34:20.142Z,18.69
2019-06-07T07:36:28.474Z,18.66
2019-06-07T07:38:29.481Z,18.61
2019-06-07T07:41:13.994Z,18.24
2019-06-07T07:43:30.079Z,18.14
2019-06-07T07:46:03.225Z,18.13
2019-06-07T07:48:31.071Z,18.18
2019-06-07T07:51:03.090Z,18.11
2019-06-07T07:53:47.853Z,18.15
2019-06-07T07:56:03.115Z,18.58
2019-06-07T07:58:32.736Z,18.69
2019-06-07T08:01:10.079Z,18.72
2019-06-07T08:03:33.348Z,18.45
2019-06-07T08:06:02.887Z,18.49
2019-06-07T08:08:32.352Z,18.99
2019-06-07T08:11:02.538Z,19.22
2019-06-07T08:13:32.164Z,19.31
2019-06-07T08:16:10.606Z,18.59
2019-06-07T08:18:32.827Z,18.59
2019-06-07T08:21:21.157Z,18.66
2019-06-07T08:23:33.436Z,18.81
2019-06-07T08:26:02.900Z,19.16
2019-06-07T08:28:32.477Z,19.27
2019-06-07T08:31:06.875Z,19.57
2019-06-07T08:33:34.763Z,19.57
2019-06-07T08:36:19.492Z,19.38
2019-06-07T08:38:47.619Z,19.57
2019-06-07T08:41:12.116Z,19.57
2019-06-07T08:43:38.679Z,19.07
2019-06-07T08:46:08.296Z,19.18
2019-06-07T08:48:37.786Z,19.23
2019-06-07T08:51:08.606Z,19.30
2019-06-07T08:53:38.875Z,19.30
2019-06-07T08:56:11.031Z,19.17
2019-06-07T08:58:40.229Z,19.07
2019-06-07T09:01:09.618Z,19.11
2019-06-07T09:03:39.417Z,18.94
2019-06-07T09:06:53.864Z,18.84
2019-06-07T09:08:40.243Z,18.88
2019-06-07T09:11:11.318Z,18.85
2019-06-07T09:13:41.115Z,19.09
2019-06-07T09:16:10.533Z,19.48
2019-06-07T09:18:44.016Z,19.76
2019-06-07T09:21:11.087Z,19.79
2019-06-07T09:23:40.602Z,19.77
2019-06-07T09:26:16.569Z,19.68
2019-06-07T09:28:41.801Z,19.46
2019-06-07T09:31:12.759Z,19.75
2019-06-07T09:33:42.537Z,19.69
2019-06-07T09:36:13.489Z,19.67
2019-06-07T09:38:44.363Z,19.58
2019-06-07T09:41:15.474Z,19.54
2019-06-07T09:44:10.835Z,19.85
2019-06-07T09:46:16.842Z,19.73
2019-06-07T09:49:10.744Z,20.02
2019-06-07T09:51:20.386Z,20.02
2019-06-07T09:53:48.932Z,19.97
2019-06-07T09:56:19.212Z,20.01
2019-06-07T09:58:52.677Z,20.09
2019-06-07T10:01:19.847Z,20.47
2019-06-07T10:03:49.282Z,20.86
2019-06-07T10:06:18.687Z,20.55
2019-06-07T10:11:19.280Z,20.47
2019-06-07T10:13:48.726Z,20.43
2019-06-07T10:16:18.174Z,20.59
2019-06-07T10:18:47.773Z,20.42
2019-06-07T10:21:17.210Z,20.94
2019-06-07T10:23:46.657Z,20.68
2019-06-07T10:26:16.252Z,20.68
2019-06-07T10:28:45.689Z,20.89
2019-06-07T10:31:15.133Z,20.85
2019-06-07T10:33:44.603Z,20.49
2019-06-07T10:36:14.048Z,20.42
2019-06-07T10:38:43.491Z,20.42
2019-06-07T10:41:12.920Z,21.00
2019-06-07T10:43:42.374Z,21.45
2019-06-07T10:46:12.153Z,21.69
2019-06-07T10:48:41.715Z,21.44
2019-06-07T10:51:14.374Z,21.20
2019-06-07T10:53:42.443Z,21.83
2019-06-07T10:56:13.378Z,22.41
2019-06-07T10:58:43.007Z,22.29
2019-06-07T11:01:14.223Z,22.51
2019-06-07T11:03:45.099Z,21.61
2019-06-07T11:06:14.605Z,21.09
2019-06-07T11:08:44.190Z,20.55
2019-06-07T11:11:14.397Z,21.36
2019-06-07T11:13:43.982Z,22.04
2019-06-07T11:16:13.410Z,22.28
2019-06-07T11:18:42.836Z,22.60
2019-06-07T11:21:12.279Z,22.94
2019-06-07T11:23:41.702Z,22.89
2019-06-07T11:26:12.374Z,23.10
2019-06-07T11:28:42.022Z,22.52
2019-06-07T11:31:13.231Z,22.55
2019-06-07T11:33:43.101Z,22.61
2019-06-07T11:36:12.956Z,22.32
2019-06-07T11:38:42.344Z,22.06
2019-06-07T11:41:11.827Z,22.48
2019-06-07T11:43:41.307Z,22.92
2019-06-07T11:46:11.074Z,22.50
2019-06-07T11:48:40.663Z,21.90
2019-06-07T11:51:10.786Z,20.99
2019-06-07T11:53:40.435Z,21.81
2019-06-07T11:56:10.336Z,22.22
2019-06-07T11:58:40.046Z,22.24
2019-06-07T12:01:11.741Z,21.64
2019-06-07T12:03:41.340Z,21.79
2019-06-07T12:06:12.030Z,21.58
2019-06-07T12:08:41.874Z,21.42
2019-06-07T12:11:12.192Z,21.43
2019-06-07T12:13:41.798Z,22.11
2019-06-07T12:16:11.386Z,22.98
2019-06-07T12:18:40.806Z,23.52
2019-06-07T12:21:11.441Z,23.01
2019-06-07T12:23:40.963Z,22.53
2019-06-07T12:26:10.389Z,22.35
2019-06-07T12:28:41.303Z,22.68
2019-06-07T12:31:10.912Z,22.04
2019-06-07T12:33:58.141Z,22.13
2019-06-07T12:36:27.639Z,21.55
2019-06-07T12:38:57.066Z,21.56
2019-06-07T12:41:26.499Z,21.88
2019-06-07T12:43:59.105Z,22.03
2019-06-07T12:46:28.701Z,22.10
2019-06-07T12:48:58.237Z,22.15
2019-06-07T12:51:27.935Z,22.02
2019-06-07T12:53:57.411Z,22.69
2019-06-07T12:56:26.830Z,23.48
2019-06-07T12:58:56.311Z,23.89
2019-06-07T13:01:25.770Z,23.75
2019-06-07T13:03:55.210Z,23.84
2019-06-07T13:06:24.627Z,23.45
2019-06-07T13:08:54.138Z,23.01
2019-06-07T13:11:28.178Z,22.76
2019-06-07T13:13:54.752Z,22.64
2019-06-07T13:16:24.330Z,23.06
2019-06-07T13:18:53.720Z,23.03
2019-06-07T13:21:24.654Z,22.86
2019-06-07T13:23:54.299Z,23.27
2019-06-07T13:26:24.953Z,24.06
2019-06-07T13:28:54.637Z,24.48
2019-06-07T13:31:25.245Z,24.76
2019-06-07T13:33:54.771Z,24.80
2019-06-07T13:36:24.450Z,24.36
2019-06-07T13:38:54.004Z,24.40
2019-06-07T13:41:36.405Z,24.83
2019-06-07T13:43:54.664Z,25.02
2019-06-07T13:46:25.321Z,25.01
2019-06-07T13:48:54.963Z,25.20
2019-06-07T13:51:25.216Z,24.50
2019-06-07T13:53:55.530Z,24.44
2019-06-07T13:56:26.087Z,24.08
2019-06-07T13:58:55.618Z,23.68
2019-06-07T14:01:25.029Z,23.32
2019-06-07T14:03:54.607Z,23.32
2019-06-07T14:06:25.249Z,23.65
2019-06-07T14:08:55.131Z,23.93
2019-06-07T14:11:25.635Z,24.38
2019-06-07T14:13:55.095Z,24.47
2019-06-07T14:16:24.505Z,24.15
2019-06-07T14:18:53.943Z,23.41
2019-06-07T14:21:24.581Z,23.63
2019-06-07T14:23:54.172Z,23.90
2019-06-07T14:26:23.585Z,24.16
2019-06-07T14:28:53.183Z,23.89
2019-06-07T14:31:24.385Z,23.68
2019-06-07T14:33:53.767Z,23.23
2019-06-07T14:36:24.875Z,23.38
2019-06-07T14:38:54.330Z,23.34
2019-06-07T14:41:24.939Z,24.32
2019-06-07T14:43:54.658Z,24.47
2019-06-07T14:46:25.254Z,24.55
2019-06-07T14:48:55.857Z,24.47
2019-06-07T14:51:26.226Z,24.83
2019-06-07T14:53:55.653Z,25.18
2019-06-07T14:56:25.260Z,25.15
2019-06-07T14:58:56.166Z,25.22
2019-06-07T15:01:26.265Z,24.97
2019-06-07T15:04:05.339Z,25.31
2019-06-07T15:06:36.866Z,25.48
2019-06-07T15:09:07.877Z,25.20
2019-06-07T15:11:37.352Z,25.13
2019-06-07T15:14:06.869Z,24.51
2019-06-07T15:16:37.821Z,23.82
2019-06-07T15:19:07.450Z,23.24
2019-06-07T15:21:36.877Z,22.92
2019-06-07T15:24:06.403Z,22.79
2019-06-07T15:26:36.434Z,22.63
2019-06-07T15:29:07.062Z,22.65
2019-06-07T15:31:37.177Z,22.82
2019-06-07T15:34:09.389Z,22.80
2019-06-07T15:36:38.932Z,23.05
2019-06-07T15:39:08.527Z,23.28
2019-06-07T15:41:39.727Z,23.33
2019-06-07T15:44:09.526Z,23.33
2019-06-07T15:46:40.103Z,23.60
2019-06-07T15:49:09.992Z,24.59
2019-06-07T15:51:40.824Z,24.75
2019-06-07T15:54:10.542Z,25.06
2019-06-07T15:56:41.364Z,24.54
2019-06-07T15:59:12.266Z,23.86
2019-06-07T16:01:42.239Z,23.33
2019-06-07T16:04:11.902Z,22.98
2019-06-07T16:06:43.496Z,22.73
2019-06-07T16:09:12.607Z,22.64
2019-06-07T16:11:44.215Z,22.58
2019-06-07T16:14:13.794Z,22.48
2019-06-07T16:16:44.214Z,22.48
2019-06-07T16:19:13.764Z,22.22
2019-06-07T16:21:43.702Z,22.20
2019-06-07T16:24:13.126Z,22.09
2019-06-07T16:26:42.724Z,21.97
2019-06-07T16:29:12.150Z,21.90
2019-06-07T16:31:42.758Z,21.71
2019-06-07T16:34:12.271Z,21.54
2019-06-07T16:36:42.291Z,21.48
2019-06-07T16:39:11.729Z,21.37
2019-06-07T16:41:42.707Z,21.33
2019-06-07T16:44:12.292Z,21.30
2019-06-07T16:46:42.870Z,21.34
2019-06-07T16:49:13.563Z,21.35
2019-06-07T16:51:43.330Z,21.33
2019-06-07T16:54:14.829Z,21.29
2019-06-07T16:56:49.017Z,21.37
2019-06-07T16:59:16.849Z,21.34
2019-06-07T17:01:46.283Z,21.34
2019-06-07T17:04:15.782Z,21.36
2019-06-07T17:06:46.427Z,21.50
2019-06-07T17:09:16.027Z,21.52
2019-06-07T17:11:46.407Z,21.49
2019-06-07T17:14:16.095Z,21.38
2019-06-07T17:16:46.105Z,21.27
2019-06-07T17:19:16.671Z,21.23
2019-06-07T17:21:47.395Z,21.20
2019-06-07T17:24:17.021Z,21.08
2019-06-07T17:26:47.686Z,21.14
2019-06-07T17:29:17.277Z,21.14
2019-06-07T17:31:48.126Z,21.10
2019-06-07T17:34:17.792Z,21.10
2019-06-07T17:36:48.637Z,21.06
2019-06-07T17:39:18.303Z,21.05
2019-06-07T17:41:55.263Z,20.99
2019-06-07T17:44:18.894Z,20.67
2019-06-07T17:46:49.895Z,20.39
2019-06-07T17:49:19.512Z,20.15
2019-06-07T17:51:49.973Z,20.03
2019-06-07T17:54:19.462Z,19.73
2019-06-07T17:56:48.883Z,19.54
2019-06-07T17:59:18.341Z,19.46
2019-06-07T18:02:10.221Z,19.34
2019-06-07T18:04:18.951Z,19.34
2019-06-07T18:06:49.717Z,19.30
2019-06-07T18:09:19.740Z,19.25
2019-06-07T18:11:49.992Z,19.03
2019-06-07T18:14:19.615Z,18.70
2019-06-07T18:16:50.466Z,18.70
2019-06-07T18:19:20.038Z,18.35
2019-06-07T18:21:50.737Z,18.03
2019-06-07T18:24:21.303Z,17.65
2019-06-07T18:26:50.765Z,17.19
2019-06-07T18:29:20.253Z,16.99
2019-06-07T18:31:50.746Z,16.96
2019-06-07T18:34:20.167Z,16.74
2019-06-07T18:36:50.930Z,16.71
2019-06-07T18:39:20.518Z,16.63
2019-06-07T18:41:51.819Z,16.51
2019-06-07T18:44:22.044Z,16.43
2019-06-07T18:46:52.243Z,16.32
2019-06-07T18:49:21.699Z,16.35
2019-06-07T18:52:08.730Z,16.39
2019-06-07T18:54:38.156Z,16.40
2019-06-07T18:57:07.603Z,16.36
2019-06-07T18:59:36.998Z,16.47
2019-06-07T19:02:06.541Z,16.40
2019-06-07T19:04:35.995Z,16.37
2019-06-07T19:07:05.523Z,16.40
2019-06-07T19:09:34.993Z,16.37
2019-06-07T19:12:04.511Z,16.32
2019-06-07T19:14:37.414Z,16.25
2019-06-07T19:17:05.249Z,16.22
2019-06-07T19:19:34.709Z,16.16
2019-06-07T19:22:04.418Z,16.12
2019-06-07T19:24:33.924Z,16.02
2019-06-07T19:27:03.373Z,15.97
2019-06-07T19:29:32.813Z,15.87
2019-06-07T19:32:02.345Z,15.78
2019-06-07T19:34:31.904Z,15.69
2019-06-07T19:37:02.127Z,15.66
2019-06-07T19:39:31.550Z,15.61
2019-06-07T19:42:02.179Z,15.58
2019-06-07T19:44:31.795Z,15.56
2019-06-07T19:47:02.619Z,15.58
2019-06-07T19:49:32.242Z,15.55
2019-06-07T19:52:03.135Z,15.49
2019-06-07T19:54:32.646Z,15.45
2019-06-07T19:57:02.100Z,15.43
2019-06-07T19:59:31.509Z,15.43
2019-06-07T20:02:02.113Z,15.33
2019-06-07T20:04:31.642Z,15.32
2019-06-07T20:07:03.482Z,15.40
2019-06-07T20:09:32.473Z,15.27
2019-06-07T20:12:02.887Z,15.34
2019-06-07T20:14:32.391Z,15.28
2019-06-07T20:17:03.498Z,15.30
2019-06-07T20:19:33.041Z,15.27
2019-06-07T20:22:03.170Z,15.27
2019-06-07T20:24:32.721Z,15.28
2019-06-07T20:27:02.389Z,15.23
2019-06-07T20:29:31.812Z,15.29
2019-06-07T20:32:02.419Z,15.28
2019-06-07T20:34:31.994Z,15.24
2019-06-07T20:37:03.893Z,15.11
2019-06-07T20:39:32.593Z,15.04
2019-06-07T20:42:03.384Z,14.95
2019-06-07T20:44:33.037Z,14.87
2019-06-07T20:47:02.469Z,14.82
2019-06-07T20:49:31.914Z,14.80
2019-06-07T20:52:03.045Z,14.70
2019-06-07T20:54:32.500Z,14.70
2019-06-07T20:57:02.638Z,14.65
2019-06-07T20:59:32.236Z,14.55
2019-06-07T21:02:03.016Z,14.53
2019-06-07T21:04:32.615Z,14.50
2019-06-07T21:07:03.199Z,14.53
2019-06-07T21:09:32.827Z,14.49
2019-06-07T21:12:02.268Z,14.50
2019-06-07T21:14:31.714Z,14.45
2019-06-07T21:17:02.122Z,14.43
2019-06-07T21:19:31.686Z,14.41
2019-06-07T21:22:02.315Z,14.36
2019-06-07T21:24:31.889Z,14.31
2019-06-07T21:27:01.761Z,14.31
2019-06-07T21:29:32.508Z,14.30
2019-06-07T21:32:03.218Z,14.22
2019-06-07T21:34:32.818Z,14.23
2019-06-07T21:37:03.638Z,14.22
2019-06-07T21:39:33.304Z,14.18
2019-06-07T21:42:04.128Z,14.19
2019-06-07T21:44:33.841Z,14.14
2019-06-07T21:47:04.209Z,14.17
2019-06-07T21:49:35.073Z,14.17
2019-06-07T21:52:06.482Z,14.18
2019-06-07T21:54:36.128Z,14.24
2019-06-07T21:57:06.850Z,14.23
2019-06-07T21:59:36.422Z,14.22
2019-06-07T22:02:05.938Z,14.21
2019-06-07T22:04:35.385Z,14.20
2019-06-07T22:07:05.313Z,14.19
2019-06-07T22:09:34.877Z,14.19
2019-06-07T22:12:05.934Z,14.18
2019-06-07T22:14:35.471Z,14.12
2019-06-07T22:17:06.094Z,14.17
2019-06-07T22:19:35.593Z,14.28
2019-06-07T22:22:05.244Z,14.19
2019-06-07T22:24:36.143Z,14.19
2019-06-07T22:27:07.032Z,14.14
2019-06-07T22:29:36.613Z,14.15
2019-06-07T22:32:06.925Z,14.07
2019-06-07T22:34:36.381Z,14.10
2019-06-07T22:37:07.100Z,14.07
2019-06-07T22:39:36.736Z,13.98
2019-06-07T22:42:08.740Z,13.97
2019-06-07T22:44:40.142Z,13.91
2019-06-07T22:47:09.966Z,13.91
2019-06-07T22:49:39.515Z,13.92
2019-06-07T22:52:12.046Z,13.86
2019-06-07T22:54:40.141Z,13.78
2019-06-07T22:57:14.206Z,13.72
2019-06-07T22:59:43.646Z,13.76
2019-06-07T23:02:14.575Z,13.73
2019-06-07T23:04:44.134Z,13.61
2019-06-07T23:07:14.880Z,13.68
2019-06-07T23:09:44.503Z,13.63
2019-06-07T23:12:15.216Z,13.62
2019-06-07T23:14:44.781Z,13.54
2019-06-07T23:17:15.639Z,13.57
2019-06-07T23:19:45.315Z,13.50
2019-06-07T23:22:16.031Z,13.51
2019-06-07T23:24:45.563Z,13.48
2019-06-07T23:27:16.353Z,13.40
2019-06-07T23:29:45.971Z,13.43
2019-06-07T23:32:16.659Z,13.38
2019-06-07T23:34:46.177Z,13.32
2019-06-07T23:37:17.020Z,13.24
2019-06-07T23:39:46.491Z,13.17
2019-06-07T23:42:15.937Z,13.16
2019-06-07T23:44:45.344Z,13.11
2019-06-07T23:47:17.165Z,13.09
2019-06-07T23:49:46.082Z,13.01
2019-06-07T23:52:15.765Z,12.94
2019-06-07T23:54:45.175Z,12.82
2019-06-07T23:57:15.925Z,12.77
2019-06-07T23:59:45.417Z,12.73
